Seattle Tacoma International Airport
KSEA : now visible

Airfield :











YOU CAN JOIN US ON...

 
LOGIN :

Register | Disclaimer

   EN    FR    IT 

 









Legend :    VFR   Marginal VFR   IFR   Intensive IFR   Very Intensive IFR
Visi :
Ceiling :
>= 8 km
>= 3000ft
5 to 8 km
1000 to 3000 ft
1500m to 5 km
500 to 1000 ft
800 to 1500m
200 to 500 ft
< 800m
< 200 ft
Symbols :   Thunderstorms  Fog  Heavy snow  Heavy precipitations  Wind > 20 kt






- Airport Elevation : 433 ft
- IATA code : SEA


KSEA - Seattle Tacoma International

CURRENT METAR :
  • 230853Z 21008KT 10SM FEW015 SCT090 09/06 A3012 RMK AO2 SLP206 T00940061 53010

EXPIRED METARs :
  • 230753Z 22006KT 10SM FEW090 10/05 A3011 RMK AO2 SLP202 T01000050 401560078
  • 230653Z 24008KT 10SM FEW043 SCT090 11/05 A3009 RMK AO2 SLP196 T01060050
  • 230553Z 18006KT 10SM BKN043 13/06 A3009 RMK AO2 SLP195 T01280056 10156 20128 51014
  • 230453Z 18006KT 10SM SCT036 BKN075 13/05 A3008 RMK AO2 SLP192 T01330050

TAF KSEA
Valid from the 23 at 09:00 until the 24 at 12:00 UTC


230853Z 2309/2412 20006KT P6SM SCT015 BKN070
FM231100 19008KT P6SM BKN020
FM231900 21008KT P6SM SCT020 BKN050
FM240300 24005KT P6SM BKN100
FM240800 19006KT P6SM BKN050
KZSE FIR / North America



MET'MAP, your aeronautical weather chart ! - Copyright ORBIFLY December 2007 - Disclaimer

ORBIFLY MET'MAP TEAM :

Programming & Development : Alexandra Zaïnal
Original concept : Baudouin d'Aumeries
Technical & hardware support : Manuel Goepfert
Assistance : Marc-Olivier Méhu




SOURCES & CREDITS :

   NOAA       Earth
Advisory